Adventureland Estates, Iowa
Current Conditions -  °F | °C
As of 6:15 PM on Saturday 20 Dec 2014 (Local Time) from KIKV Reporting Station
Haze Haze  
Wind Chill: 29°   Ceiling: 400
Heat Index: 34°   Visibility: 4mi
Dew Point: 34°   Wind: 6mph
Humidity: 100%   Direction: 160°SSE
Pressure: 30.14"   Gusts: NA
Location:  41.6405°N, 93.4586°W
Report Text: KIKV 210015Z AUTO 16005KT 4SM BR OVC004 01/01 A3014 RMK AO2
Loading
Personal Weather Stations






























Interactive Weather Map New forecast layout! Learn more

10-Day Weather Forecast

Advertisements
Track Severe Weather on mobile